Time;durP1;ratioP1;P1;durP2;ratioP2;P2;SDS_P1;SDS_P2;PMS_P1;PMS_P2;Temp;Humidity;BMP_temperature;BMP_pressure;BME280_temperature;BME280_humidity;BME280_pressure;Samples;Min_cycle;Max_cycle;Signal;HPM_P1;HPM_P2
2023/03/15 00:01:40;;;;;;;0.67;0.37;;;;;;;;;;4994934;28;20417;-72
2023/03/15 00:04:06;;;;;;;0.90;0.70;;;;;;;;;;4994954;28;20428;-71
2023/03/15 00:06:32;;;;;;;0.93;0.50;;;;;;;;;;4994726;28;20934;-70
2023/03/15 00:09:00;;;;;;;0.63;0.63;;;;;;;;;;4994620;28;20532;-74
2023/03/15 00:11:26;;;;;;;0.57;0.57;;;;;;;;;;4994508;28;20409;-73
2023/03/15 00:13:53;;;;;;;0.87;0.87;;;;;;;;;;4995041;28;20421;-73
2023/03/15 00:16:19;;;;;;;2.30;0.53;;;;;;;;;;4994490;28;20461;-72
2023/03/15 00:18:45;;;;;;;1.67;0.47;;;;;;;;;;4994730;28;20421;-73
2023/03/15 00:21:11;;;;;;;0.40;0.40;;;;;;;;;;4994731;28;20513;-72
2023/03/15 00:23:37;;;;;;;0.50;0.50;;;;;;;;;;4994358;28;20413;-71
2023/03/15 00:26:03;;;;;;;0.60;0.60;;;;;;;;;;4994251;28;20756;-72
2023/03/15 00:28:29;;;;;;;0.50;0.50;;;;;;;;;;4994526;28;20490;-71
2023/03/15 00:31:06;;;;;;;0.80;0.80;;;;;;;;;;4994519;28;20515;-71
2023/03/15 00:33:33;;;;;;;0.97;0.80;;;;;;;;;;4994468;28;20510;-70
2023/03/15 00:36:01;;;;;;;0.93;0.73;;;;;;;;;;4994616;28;20927;-72
2023/03/15 00:38:27;;;;;;;0.47;0.47;;;;;;;;;;4994221;28;20488;-71
2023/03/15 00:40:53;;;;;;;1.70;0.50;;;;;;;;;;4994814;28;20421;-72
2023/03/15 00:43:19;;;;;;;1.23;0.40;;;;;;;;;;4993801;28;20483;-73
2023/03/15 00:45:45;;;;;;;0.40;0.40;;;;;;;;;;4994364;28;20401;-73
2023/03/15 00:48:11;;;;;;;0.40;0.40;;;;;;;;;;4994553;28;20429;-73
2023/03/15 00:50:37;;;;;;;0.60;0.60;;;;;;;;;;4993968;28;20424;-73
2023/03/15 00:53:03;;;;;;;0.90;0.87;;;;;;;;;;4994137;28;20445;-73
2023/03/15 00:55:29;;;;;;;0.67;0.67;;;;;;;;;;4994103;28;20451;-71
2023/03/15 00:57:55;;;;;;;1.20;1.20;;;;;;;;;;4993830;28;20479;-73
2023/03/15 01:00:23;;;;;;;0.97;0.97;;;;;;;;;;4994189;28;20512;-71
2023/03/15 01:02:50;;;;;;;2.27;0.53;;;;;;;;;;4993897;28;20430;-72
2023/03/15 01:05:16;;;;;;;0.60;0.60;;;;;;;;;;4994131;28;20785;-71
2023/03/15 01:07:44;;;;;;;0.73;0.73;;;;;;;;;;4993889;28;20511;-70
2023/03/15 01:10:10;;;;;;;0.50;0.50;;;;;;;;;;4993654;28;20531;-71
2023/03/15 01:12:36;;;;;;;2.13;0.63;;;;;;;;;;4993967;28;20439;-72
2023/03/15 01:15:04;;;;;;;1.20;0.73;;;;;;;;;;4993800;28;20904;-72
2023/03/15 01:17:30;;;;;;;0.67;0.67;;;;;;;;;;4993614;28;20469;-71
2023/03/15 01:19:56;;;;;;;1.33;0.70;;;;;;;;;;4993983;28;20471;-71
2023/03/15 01:22:22;;;;;;;0.83;0.70;;;;;;;;;;4993641;28;20418;-72
2023/03/15 01:24:48;;;;;;;0.87;0.87;;;;;;;;;;4993522;28;20508;-71
2023/03/15 01:27:14;;;;;;;0.60;0.50;;;;;;;;;;4993943;28;20814;-71
2023/03/15 01:29:39;;;;;;;0.60;0.60;;;;;;;;;;4993844;28;20418;-71
2023/03/15 01:32:06;;;;;;;0.50;0.50;;;;;;;;;;4993508;28;20432;-72
2023/03/15 01:34:32;;;;;;;0.40;0.40;;;;;;;;;;4993577;28;20944;-71
2023/03/15 01:36:58;;;;;;;0.63;0.63;;;;;;;;;;4993475;28;20464;-71
2023/03/15 01:39:24;;;;;;;0.50;0.50;;;;;;;;;;4992224;28;20436;-71
2023/03/15 01:41:50;;;;;;;1.13;0.70;;;;;;;;;;4993458;28;20801;-72
2023/03/15 01:44:17;;;;;;;0.60;0.60;;;;;;;;;;4993488;28;20480;-73
2023/03/15 01:46:44;;;;;;;0.43;0.43;;;;;;;;;;4993433;28;20496;-70
2023/03/15 01:49:18;;;;;;;0.40;0.40;;;;;;;;;;4993395;28;20492;-71
2023/03/15 01:51:44;;;;;;;0.67;0.60;;;;;;;;;;4993251;28;20420;-71
2023/03/15 01:54:19;;;;;;;0.60;0.60;;;;;;;;;;4992934;28;20444;-71
2023/03/15 01:56:58;;;;;;;0.70;0.50;;;;;;;;;;4991989;28;20480;-72
2023/03/15 01:59:31;;;;;;;0.70;0.40;;;;;;;;;;4993577;28;20409;-72
2023/03/15 02:01:58;;;;;;;1.30;0.73;;;;;;;;;;4993270;28;20452;-71
2023/03/15 02:04:28;;;;;;;0.50;0.50;;;;;;;;;;4993582;28;20528;-72
2023/03/15 02:06:58;;;;;;;0.70;0.70;;;;;;;;;;4993289;28;20464;-73
2023/03/15 02:09:28;;;;;;;0.50;0.50;;;;;;;;;;4993228;28;20394;-73
2023/03/15 02:11:54;;;;;;;0.83;0.80;;;;;;;;;;4993451;28;20497;-71
2023/03/15 02:17:28;;;;;;;0.40;0.40;;;;;;;;;;4993162;28;20531;-71
2023/03/15 02:20:03;;;;;;;0.50;0.50;;;;;;;;;;4995481;28;20425;-72
2023/03/15 02:22:52;;;;;;;1.07;0.80;;;;;;;;;;4997540;28;20441;-70
2023/03/15 02:25:25;;;;;;;0.50;0.40;;;;;;;;;;4991223;28;20831;-72
2023/03/15 02:27:51;;;;;;;0.30;0.30;;;;;;;;;;4996753;28;20739;-73
2023/03/15 02:30:17;;;;;;;0.50;0.50;;;;;;;;;;4996491;28;20459;-71
2023/03/15 02:32:43;;;;;;;0.63;0.63;;;;;;;;;;4996676;28;20421;-71
2023/03/15 02:35:09;;;;;;;0.50;0.50;;;;;;;;;;4997454;28;20452;-72
2023/03/15 02:37:35;;;;;;;0.40;0.40;;;;;;;;;;4996545;28;20473;-71
2023/03/15 02:40:04;;;;;;;0.60;0.50;;;;;;;;;;4997098;28;20893;-71
2023/03/15 02:42:30;;;;;;;0.60;0.60;;;;;;;;;;4996436;28;20425;-71
2023/03/15 02:44:57;;;;;;;0.70;0.70;;;;;;;;;;4995897;28;20476;-72
2023/03/15 02:47:26;;;;;;;0.60;0.60;;;;;;;;;;4996414;28;20422;-71
2023/03/15 02:49:53;;;;;;;0.60;0.60;;;;;;;;;;4996153;28;20413;-71
2023/03/15 02:52:19;;;;;;;0.50;0.50;;;;;;;;;;4996275;28;20568;-72
2023/03/15 02:54:45;;;;;;;0.50;0.50;;;;;;;;;;4996135;28;20417;-72
2023/03/15 02:57:12;;;;;;;0.97;0.60;;;;;;;;;;4996417;28;20473;-71
2023/03/15 02:59:38;;;;;;;0.73;0.70;;;;;;;;;;4995966;28;20425;-72
2023/03/15 03:02:05;;;;;;;0.57;0.57;;;;;;;;;;4996036;28;20825;-73
2023/03/15 03:04:31;;;;;;;1.80;0.60;;;;;;;;;;4996246;28;20963;-72
2023/03/15 03:06:57;;;;;;;0.50;0.50;;;;;;;;;;4996241;28;20430;-72
2023/03/15 03:09:23;;;;;;;0.70;0.60;;;;;;;;;;4996036;28;20417;-73
2023/03/15 03:11:49;;;;;;;0.70;0.70;;;;;;;;;;4995498;28;20819;-71
2023/03/15 03:14:15;;;;;;;0.67;0.67;;;;;;;;;;4995692;28;20418;-72
2023/03/15 03:16:42;;;;;;;1.57;0.90;;;;;;;;;;4995776;28;20464;-72
2023/03/15 03:19:08;;;;;;;1.00;1.00;;;;;;;;;;4995902;28;20425;-71
2023/03/15 03:21:34;;;;;;;1.87;1.10;;;;;;;;;;4995524;28;20921;-72
2023/03/15 03:24:00;;;;;;;1.83;1.30;;;;;;;;;;4995491;28;20425;-71
2023/03/15 03:26:26;;;;;;;1.70;1.37;;;;;;;;;;4995423;28;20902;-70
2023/03/15 03:28:53;;;;;;;1.83;1.70;;;;;;;;;;4995802;28;20447;-73
2023/03/15 03:31:20;;;;;;;2.00;1.80;;;;;;;;;;4994136;28;20957;-73
2023/03/15 03:33:46;;;;;;;1.93;1.83;;;;;;;;;;4995283;28;20413;-70
2023/03/15 03:36:12;;;;;;;1.23;1.23;;;;;;;;;;4995397;28;20812;-71
2023/03/15 03:38:42;;;;;;;1.00;1.00;;;;;;;;;;4995709;28;20429;-71
2023/03/15 03:41:09;;;;;;;2.87;1.20;;;;;;;;;;4995331;28;20409;-71
2023/03/15 03:43:35;;;;;;;1.33;0.87;;;;;;;;;;4995148;28;20638;-71
2023/03/15 03:46:01;;;;;;;2.90;0.97;;;;;;;;;;4995357;28;20425;-71
2023/03/15 03:48:28;;;;;;;1.73;1.23;;;;;;;;;;4995163;28;20444;-73
2023/03/15 03:50:54;;;;;;;1.90;1.07;;;;;;;;;;4994914;28;20456;-72
2023/03/15 03:53:20;;;;;;;5.83;1.17;;;;;;;;;;4994904;28;20498;-71
2023/03/15 03:55:46;;;;;;;1.40;1.40;;;;;;;;;;4994914;28;20504;-71
2023/03/15 03:58:12;;;;;;;1.40;1.30;;;;;;;;;;4995847;28;20563;-71
2023/03/15 04:00:38;;;;;;;1.80;1.00;;;;;;;;;;4994749;28;20422;-72
2023/03/15 04:03:04;;;;;;;2.83;1.07;;;;;;;;;;4995025;28;20438;-70
2023/03/15 04:05:30;;;;;;;2.20;1.20;;;;;;;;;;4994752;28;20413;-73
2023/03/15 04:07:56;;;;;;;1.73;1.20;;;;;;;;;;4994936;28;20904;-72
2023/03/15 04:10:25;;;;;;;1.97;1.87;;;;;;;;;;4995124;28;20485;-72
2023/03/15 04:12:52;;;;;;;2.87;1.80;;;;;;;;;;4994473;28;20421;-70
2023/03/15 04:15:21;;;;;;;1.63;1.53;;;;;;;;;;4994844;28;20423;-72
2023/03/15 04:17:47;;;;;;;3.53;1.57;;;;;;;;;;4994906;28;20531;-73
2023/03/15 04:20:16;;;;;;;3.27;2.53;;;;;;;;;;4994678;28;20797;-72
2023/03/15 04:22:48;;;;;;;2.63;2.53;;;;;;;;;;4994535;28;20424;-70
2023/03/15 04:25:18;;;;;;;2.43;1.33;;;;;;;;;;4994654;28;20460;-71
2023/03/15 04:27:44;;;;;;;0.97;0.97;;;;;;;;;;4994557;28;20480;-71
2023/03/15 04:30:10;;;;;;;0.80;0.80;;;;;;;;;;4994352;28;20490;-71
2023/03/15 04:32:36;;;;;;;0.97;0.80;;;;;;;;;;4994350;28;20432;-71
2023/03/15 04:35:03;;;;;;;1.20;0.87;;;;;;;;;;4994539;28;20425;-71
2023/03/15 04:37:31;;;;;;;0.50;0.50;;;;;;;;;;4994411;28;20539;-71
2023/03/15 04:39:56;;;;;;;3.07;1.17;;;;;;;;;;4994334;28;20736;-71
2023/03/15 04:42:24;;;;;;;0.60;0.50;;;;;;;;;;4993740;28;20920;-73
2023/03/15 04:44:51;;;;;;;4.43;3.83;;;;;;;;;;4994003;28;21014;-71
2023/03/15 04:47:17;;;;;;;1.43;0.93;;;;;;;;;;4994291;28;20445;-71
2023/03/15 04:49:43;;;;;;;0.60;0.60;;;;;;;;;;4994283;28;20421;-71
2023/03/15 04:52:08;;;;;;;0.50;0.50;;;;;;;;;;4993875;28;20865;-72
2023/03/15 04:54:34;;;;;;;1.67;1.57;;;;;;;;;;4994236;28;20487;-71
2023/03/15 04:57:00;;;;;;;1.70;1.70;;;;;;;;;;4993798;28;20504;-72
2023/03/15 04:59:26;;;;;;;1.90;1.80;;;;;;;;;;4993864;28;20409;-71
2023/03/15 05:01:52;;;;;;;2.27;2.10;;;;;;;;;;4993994;28;20863;-71
2023/03/15 05:04:18;;;;;;;1.50;1.50;;;;;;;;;;4994012;28;20425;-71
2023/03/15 05:06:44;;;;;;;1.43;1.43;;;;;;;;;;4993786;28;20433;-72
2023/03/15 05:09:17;;;;;;;1.60;1.57;;;;;;;;;;4994010;28;20520;-71
2023/03/15 05:11:43;;;;;;;1.10;1.10;;;;;;;;;;4994287;28;20412;-71
2023/03/15 05:14:09;;;;;;;1.37;1.30;;;;;;;;;;4993959;28;20440;-71
2023/03/15 05:16:35;;;;;;;1.47;1.37;;;;;;;;;;4993708;28;20463;-73
2023/03/15 05:19:02;;;;;;;1.07;1.03;;;;;;;;;;4992352;28;20429;-72
2023/03/15 05:21:28;;;;;;;1.87;1.77;;;;;;;;;;4993698;28;20455;-71
2023/03/15 05:23:54;;;;;;;1.70;1.60;;;;;;;;;;4993578;28;20899;-71
2023/03/15 05:26:20;;;;;;;2.27;1.83;;;;;;;;;;4993628;28;20425;-71
2023/03/15 05:28:46;;;;;;;1.40;1.40;;;;;;;;;;4993866;28;20515;-71
2023/03/15 05:31:12;;;;;;;1.67;1.27;;;;;;;;;;4993550;28;20417;-72
2023/03/15 05:33:45;;;;;;;1.30;1.30;;;;;;;;;;4993830;28;20483;-73
2023/03/15 05:36:14;;;;;;;2.80;1.83;;;;;;;;;;4994047;28;20397;-72
2023/03/15 05:38:40;;;;;;;1.67;1.53;;;;;;;;;;4993474;28;20503;-72
2023/03/15 05:41:07;;;;;;;2.17;2.07;;;;;;;;;;4993399;28;20409;-70
2023/03/15 05:43:33;;;;;;;1.90;1.80;;;;;;;;;;4993452;28;20473;-71
2023/03/15 05:45:59;;;;;;;1.47;1.40;;;;;;;;;;4993454;28;20532;-71
2023/03/15 05:48:25;;;;;;;2.03;2.03;;;;;;;;;;4993655;28;20429;-72
2023/03/15 05:50:51;;;;;;;3.50;1.77;;;;;;;;;;4993666;28;20413;-72
2023/03/15 05:53:17;;;;;;;1.27;1.23;;;;;;;;;;4992802;28;20516;-72
2023/03/15 05:55:43;;;;;;;2.23;2.13;;;;;;;;;;4996591;28;20872;-73
2023/03/15 05:58:09;;;;;;;1.90;1.30;;;;;;;;;;4995575;28;20616;-71
2023/03/15 06:00:35;;;;;;;0.87;0.87;;;;;;;;;;4997119;28;20424;-72
2023/03/15 06:03:01;;;;;;;1.50;1.40;;;;;;;;;;4996804;28;20510;-71
2023/03/15 06:05:27;;;;;;;3.17;1.77;;;;;;;;;;4996870;28;20417;-72
2023/03/15 06:07:53;;;;;;;2.97;2.87;;;;;;;;;;4996669;28;20425;-73
2023/03/15 06:10:19;;;;;;;2.87;2.70;;;;;;;;;;4997040;28;20423;-72
2023/03/15 06:12:46;;;;;;;2.23;2.13;;;;;;;;;;4997059;28;20432;-73
2023/03/15 06:15:11;;;;;;;3.23;2.03;;;;;;;;;;4996606;28;20424;-72
2023/03/15 06:17:38;;;;;;;4.23;2.57;;;;;;;;;;4996280;28;20480;-73
2023/03/15 06:20:04;;;;;;;3.90;3.27;;;;;;;;;;4996566;28;20923;-73
2023/03/15 06:22:30;;;;;;;2.00;2.00;;;;;;;;;;4996997;28;20421;-74
2023/03/15 06:24:56;;;;;;;1.10;1.10;;;;;;;;;;4996979;28;20901;-72
2023/03/15 06:27:22;;;;;;;1.10;1.00;;;;;;;;;;4996733;28;20821;-73
2023/03/15 06:29:51;;;;;;;1.73;1.63;;;;;;;;;;4996415;28;20409;-71
2023/03/15 06:32:17;;;;;;;2.00;1.33;;;;;;;;;;4996738;28;20421;-73
2023/03/15 06:37:46;;;;;;;13.80;10.23;;;;;;;;;;4996175;28;20496;-73
2023/03/15 06:40:14;;;;;;;6.23;5.60;;;;;;;;;;4996287;28;20413;-74
2023/03/15 06:42:40;;;;;;;3.07;2.20;;;;;;;;;;4996169;28;20421;-72
2023/03/15 06:45:07;;;;;;;2.53;2.03;;;;;;;;;;4996066;28;20483;-73
2023/03/15 06:47:33;;;;;;;3.37;1.20;;;;;;;;;;4996057;28;20904;-73
2023/03/15 06:49:59;;;;;;;1.93;0.97;;;;;;;;;;4996478;28;20412;-74
2023/03/15 06:52:25;;;;;;;0.93;0.80;;;;;;;;;;4995973;28;20528;-72
2023/03/15 06:54:51;;;;;;;1.23;1.00;;;;;;;;;;4995841;28;20464;-72
2023/03/15 06:57:17;;;;;;;1.03;0.97;;;;;;;;;;4996163;28;20488;-73
2023/03/15 06:59:43;;;;;;;0.70;0.70;;;;;;;;;;4995955;28;20421;-77
2023/03/15 07:02:13;;;;;;;1.60;0.87;;;;;;;;;;4996108;28;20957;-73
2023/03/15 07:04:39;;;;;;;3.23;1.33;;;;;;;;;;4995177;28;21069;-72
2023/03/15 07:07:05;;;;;;;0.93;0.93;;;;;;;;;;4994559;28;20433;-74
2023/03/15 07:09:31;;;;;;;1.43;1.30;;;;;;;;;;4995707;28;20425;-68
2023/03/15 07:11:57;;;;;;;2.10;1.47;;;;;;;;;;4995651;28;20429;-74
2023/03/15 07:14:23;;;;;;;2.13;1.20;;;;;;;;;;4994439;28;20417;-74
2023/03/15 07:16:49;;;;;;;4.60;1.77;;;;;;;;;;4995398;28;20476;-74
2023/03/15 07:19:15;;;;;;;2.93;1.20;;;;;;;;;;4995449;28;20417;-72
2023/03/15 07:21:41;;;;;;;6.40;1.90;;;;;;;;;;4995742;28;20487;-72
2023/03/15 07:24:07;;;;;;;4.10;2.00;;;;;;;;;;4995468;28;20417;-74
2023/03/15 07:26:33;;;;;;;2.20;1.60;;;;;;;;;;4995499;28;20429;-71
2023/03/15 07:28:59;;;;;;;2.53;2.00;;;;;;;;;;4993975;28;20425;-74
2023/03/15 07:31:25;;;;;;;2.10;1.43;;;;;;;;;;4995459;28;20429;-74
2023/03/15 07:33:51;;;;;;;1.33;1.33;;;;;;;;;;4995659;28;20504;-73
2023/03/15 07:36:17;;;;;;;1.67;1.57;;;;;;;;;;4995913;28;20516;-72
2023/03/15 07:38:43;;;;;;;2.67;1.40;;;;;;;;;;4995103;28;20913;-72
2023/03/15 07:41:09;;;;;;;2.27;2.00;;;;;;;;;;4995357;28;20425;-73
2023/03/15 07:43:35;;;;;;;3.40;2.90;;;;;;;;;;4995027;28;20461;-73
2023/03/15 07:46:01;;;;;;;14.40;6.53;;;;;;;;;;4995522;28;20927;-72
2023/03/15 07:48:31;;;;;;;9.07;5.93;;;;;;;;;;4994956;28;21004;-73
2023/03/15 07:50:57;;;;;;;13.53;2.13;;;;;;;;;;4993720;28;20425;-73
2023/03/15 07:53:23;;;;;;;1.83;1.83;;;;;;;;;;4995104;28;20416;-74
2023/03/15 07:55:49;;;;;;;1.90;1.87;;;;;;;;;;4995262;28;20417;-73
2023/03/15 07:58:15;;;;;;;3.53;1.83;;;;;;;;;;4995034;28;20473;-74
2023/03/15 08:00:41;;;;;;;2.37;2.27;;;;;;;;;;4995091;28;20422;-74
2023/03/15 08:03:07;;;;;;;3.33;1.90;;;;;;;;;;4994583;28;20456;-74
2023/03/15 08:05:34;;;;;;;2.57;2.13;;;;;;;;;;4994851;28;20420;-75
2023/03/15 08:08:00;;;;;;;2.20;2.20;;;;;;;;;;4994887;28;20429;-75
2023/03/15 08:10:26;;;;;;;2.20;2.00;;;;;;;;;;4994830;28;20563;-74
2023/03/15 08:12:52;;;;;;;2.50;2.30;;;;;;;;;;4994221;28;20952;-74
2023/03/15 08:15:19;;;;;;;2.07;2.07;;;;;;;;;;4994649;28;20425;-74
2023/03/15 08:17:46;;;;;;;4.10;3.53;;;;;;;;;;4993729;28;21108;-75
2023/03/15 08:20:18;;;;;;;1.70;1.70;;;;;;;;;;4994559;28;20775;-75
2023/03/15 08:22:46;;;;;;;4.23;2.50;;;;;;;;;;4994858;28;20441;-75
2023/03/15 08:25:14;;;;;;;2.30;2.10;;;;;;;;;;4993570;28;20805;-73
2023/03/15 08:27:41;;;;;;;1.83;1.27;;;;;;;;;;4993897;28;20189;-74
2023/03/15 08:30:08;;;;;;;1.90;1.47;;;;;;;;;;4993914;28;20418;-74
2023/03/15 08:32:34;;;;;;;1.40;1.40;;;;;;;;;;4994170;28;20422;-74
2023/03/15 08:35:00;;;;;;;2.73;1.30;;;;;;;;;;4994019;28;20955;-74
2023/03/15 08:37:26;;;;;;;5.33;1.53;;;;;;;;;;4993041;28;20469;-73
2023/03/15 08:39:59;;;;;;;1.80;1.67;;;;;;;;;;4993991;28;20520;-73
2023/03/15 08:42:25;;;;;;;2.77;1.80;;;;;;;;;;4993722;28;20435;-70
2023/03/15 08:44:51;;;;;;;3.80;1.50;;;;;;;;;;4993909;28;20891;-73
2023/03/15 08:47:17;;;;;;;4.20;1.80;;;;;;;;;;4992749;28;20449;-72
2023/03/15 08:49:43;;;;;;;1.37;1.37;;;;;;;;;;4994584;28;20749;-72
2023/03/15 08:52:09;;;;;;;1.30;1.20;;;;;;;;;;4993872;28;20483;-72
2023/03/15 08:54:35;;;;;;;4.27;1.40;;;;;;;;;;4994128;28;20406;-74
2023/03/15 08:57:01;;;;;;;1.27;1.23;;;;;;;;;;4993860;28;20503;-74
2023/03/15 08:59:27;;;;;;;1.37;1.27;;;;;;;;;;4994220;28;20507;-74
2023/03/15 09:01:53;;;;;;;1.50;1.50;;;;;;;;;;4994007;28;20911;-74
2023/03/15 09:04:20;;;;;;;1.20;1.20;;;;;;;;;;4993905;28;20413;-74
2023/03/15 09:06:46;;;;;;;1.03;0.80;;;;;;;;;;4994363;28;20787;-74
2023/03/15 09:09:16;;;;;;;1.10;1.10;;;;;;;;;;4993719;28;20409;-74
2023/03/15 09:11:42;;;;;;;0.83;0.83;;;;;;;;;;4993746;28;20913;-74
2023/03/15 09:14:08;;;;;;;0.87;0.87;;;;;;;;;;4994084;28;20423;-74
2023/03/15 09:16:34;;;;;;;1.30;1.30;;;;;;;;;;4993839;28;20953;-74
2023/03/15 09:19:00;;;;;;;1.47;1.23;;;;;;;;;;4994010;28;20516;-74
2023/03/15 09:21:26;;;;;;;0.93;0.70;;;;;;;;;;4993676;28;20444;-74
2023/03/15 09:23:52;;;;;;;0.80;0.80;;;;;;;;;;4993830;28;20425;-73
2023/03/15 09:26:18;;;;;;;1.30;1.30;;;;;;;;;;4993760;28;20472;-72
2023/03/15 09:28:44;;;;;;;1.87;1.00;;;;;;;;;;4995585;28;20795;-73
2023/03/15 09:31:10;;;;;;;1.00;1.00;;;;;;;;;;4997792;28;20417;-73
2023/03/15 09:33:36;;;;;;;1.83;0.80;;;;;;;;;;4997903;28;20782;-71
2023/03/15 09:36:02;;;;;;;4.33;1.13;;;;;;;;;;4997641;28;20467;-73
2023/03/15 09:38:28;;;;;;;1.10;1.10;;;;;;;;;;4997524;28;20483;-73
2023/03/15 09:40:58;;;;;;;6.23;2.33;;;;;;;;;;4997671;28;20409;-73
2023/03/15 09:43:30;;;;;;;2.07;1.27;;;;;;;;;;4997161;28;20471;-73
2023/03/15 09:46:15;;;;;;;0.87;0.87;;;;;;;;;;4997273;28;20905;-73
2023/03/15 09:49:04;;;;;;;1.00;1.00;;;;;;;;;;4995887;28;20417;-72
2023/03/15 09:51:47;;;;;;;5.50;1.60;;;;;;;;;;4977816;28;20412;-73
2023/03/15 09:54:18;;;;;;;1.20;1.20;;;;;;;;;;4997340;28;20420;-73
2023/03/15 09:56:55;;;;;;;5.50;0.90;;;;;;;;;;4997112;28;20449;-73
2023/03/15 09:59:24;;;;;;;1.10;1.00;;;;;;;;;;4997405;28;20503;-73
2023/03/15 10:01:52;;;;;;;1.00;1.00;;;;;;;;;;4997002;28;20847;-73
2023/03/15 10:04:29;;;;;;;0.80;0.80;;;;;;;;;;4995825;28;20441;-73
2023/03/15 10:06:56;;;;;;;2.23;0.70;;;;;;;;;;4997041;28;20420;-73
2023/03/15 10:09:25;;;;;;;1.07;1.07;;;;;;;;;;4997116;28;20437;-73
2023/03/15 10:11:51;;;;;;;7.80;1.33;;;;;;;;;;4997137;28;20428;-73
2023/03/15 10:14:17;;;;;;;2.83;1.10;;;;;;;;;;4997570;28;20428;-74
2023/03/15 10:16:45;;;;;;;0.80;0.80;;;;;;;;;;4996987;28;20456;-72
2023/03/15 10:19:24;;;;;;;0.60;0.60;;;;;;;;;;4997242;28;20491;-72
2023/03/15 10:21:54;;;;;;;0.87;0.50;;;;;;;;;;4996625;28;20409;-72
2023/03/15 10:24:23;;;;;;;2.60;1.30;;;;;;;;;;4996922;28;20436;-72
2023/03/15 10:26:51;;;;;;;0.60;0.60;;;;;;;;;;4996961;28;20850;-73
2023/03/15 10:29:19;;;;;;;0.73;0.73;;;;;;;;;;4996514;28;20917;-72
2023/03/15 10:31:46;;;;;;;12.60;0.40;;;;;;;;;;4996780;28;20424;-72
2023/03/15 10:34:12;;;;;;;1.53;0.93;;;;;;;;;;4996787;28;20425;-74
2023/03/15 10:36:43;;;;;;;0.40;0.40;;;;;;;;;;4996699;28;20453;-72
2023/03/15 10:39:11;;;;;;;1.07;0.83;;;;;;;;;;4997015;28;20405;-73
2023/03/15 10:41:40;;;;;;;0.60;0.60;;;;;;;;;;4995893;28;20413;-73
2023/03/15 10:44:12;;;;;;;0.60;0.60;;;;;;;;;;4996118;28;20878;-73
2023/03/15 10:46:38;;;;;;;1.07;0.57;;;;;;;;;;4996362;28;20409;-73
2023/03/15 10:49:11;;;;;;;0.60;0.60;;;;;;;;;;4995695;28;20425;-73
2023/03/15 10:51:42;;;;;;;0.80;0.80;;;;;;;;;;4996401;28;20413;-72
2023/03/15 10:54:18;;;;;;;0.47;0.47;;;;;;;;;;4996476;28;20504;-72
2023/03/15 10:56:49;;;;;;;2.47;0.60;;;;;;;;;;4996081;28;20511;-72
2023/03/15 10:59:20;;;;;;;0.63;0.50;;;;;;;;;;4996022;28;20524;-72
2023/03/15 11:01:47;;;;;;;3.53;0.57;;;;;;;;;;4996290;28;20431;-72
2023/03/15 11:04:18;;;;;;;0.60;0.60;;;;;;;;;;4996248;28;20426;-73
2023/03/15 11:07:01;;;;;;;0.63;0.63;;;;;;;;;;4996192;28;20415;-72
2023/03/15 11:09:36;;;;;;;0.60;0.60;;;;;;;;;;4996097;28;20410;-72
2023/03/15 11:12:04;;;;;;;1.00;0.47;;;;;;;;;;4996093;28;20401;-73
2023/03/15 11:14:43;;;;;;;1.20;0.60;;;;;;;;;;4996399;28;20457;-72
2023/03/15 11:17:20;;;;;;;2.53;1.73;;;;;;;;;;4995834;28;20476;-72
2023/03/15 11:20:12;;;;;;;6.97;5.40;;;;;;;;;;4996499;28;20451;-72
2023/03/15 11:22:41;;;;;;;0.80;0.80;;;;;;;;;;4977740;28;20433;-73
2023/03/15 11:25:14;;;;;;;1.43;0.70;;;;;;;;;;4994357;28;20425;-73
2023/03/15 11:27:42;;;;;;;0.50;0.50;;;;;;;;;;4995511;28;20459;-72
2023/03/15 11:30:12;;;;;;;0.47;0.40;;;;;;;;;;4994251;28;20427;-73
2023/03/15 11:32:39;;;;;;;0.90;0.90;;;;;;;;;;4995486;28;20459;-73
2023/03/15 11:35:28;;;;;;;1.03;1.03;;;;;;;;;;4995410;28;20520;-72
2023/03/15 11:37:56;;;;;;;0.70;0.70;;;;;;;;;;4995926;28;20477;-73
2023/03/15 11:40:24;;;;;;;0.50;0.50;;;;;;;;;;4995979;28;20459;-72
2023/03/15 11:42:55;;;;;;;0.53;0.53;;;;;;;;;;4996208;28;20429;-73
2023/03/15 11:45:33;;;;;;;0.50;0.50;;;;;;;;;;4995367;28;20429;-72
2023/03/15 11:48:03;;;;;;;0.40;0.40;;;;;;;;;;4995496;28;20437;-73
2023/03/15 11:50:29;;;;;;;0.80;0.73;;;;;;;;;;4995101;28;20414;-72
2023/03/15 11:53:01;;;;;;;0.83;0.80;;;;;;;;;;4994115;28;20432;-73
2023/03/15 11:55:28;;;;;;;1.90;0.70;;;;;;;;;;4994884;28;20393;-73
2023/03/15 11:57:56;;;;;;;0.70;0.70;;;;;;;;;;4995070;28;20885;-73
2023/03/15 12:00:25;;;;;;;0.53;0.53;;;;;;;;;;4994803;28;20417;-73
2023/03/15 12:02:56;;;;;;;2.40;1.33;;;;;;;;;;4995078;28;20428;-73
2023/03/15 12:05:40;;;;;;;1.17;1.17;;;;;;;;;;4994719;28;20444;-73
2023/03/15 12:08:17;;;;;;;1.37;0.80;;;;;;;;;;4995013;28;20425;-73
2023/03/15 12:10:45;;;;;;;0.40;0.40;;;;;;;;;;4995017;28;20404;-73
2023/03/15 12:13:29;;;;;;;0.97;0.90;;;;;;;;;;5066738;28;20589;-73
2023/03/15 12:15:55;;;;;;;1.43;1.33;;;;;;;;;;5065643;28;20424;-75
2023/03/15 12:18:26;;;;;;;5.03;4.63;;;;;;;;;;5062134;28;20433;-75
2023/03/15 12:20:57;;;;;;;1.93;0.93;;;;;;;;;;5056920;28;20474;-75
2023/03/15 12:23:36;;;;;;;0.70;0.60;;;;;;;;;;5063612;28;20449;-75
2023/03/15 12:26:02;;;;;;;0.60;0.60;;;;;;;;;;5067099;28;20424;-75
2023/03/15 12:28:37;;;;;;;2.23;2.20;;;;;;;;;;5063012;28;20439;-75
2023/03/15 12:31:05;;;;;;;1.07;1.07;;;;;;;;;;5063895;28;20971;-75
2023/03/15 12:33:32;;;;;;;2.07;2.07;;;;;;;;;;5063508;28;20442;-75
2023/03/15 12:35:59;;;;;;;2.20;2.20;;;;;;;;;;5064802;28;20801;-76
2023/03/15 12:38:31;;;;;;;0.67;0.67;;;;;;;;;;5063505;28;20443;-75
2023/03/15 12:40:57;;;;;;;1.03;1.03;;;;;;;;;;5060612;28;20964;-75
2023/03/15 12:43:36;;;;;;;1.13;1.13;;;;;;;;;;5063030;28;20434;-76
2023/03/15 12:46:03;;;;;;;2.57;0.57;;;;;;;;;;5066327;28;20417;-75
2023/03/15 12:48:30;;;;;;;0.67;0.67;;;;;;;;;;5063680;28;20877;-76
2023/03/15 12:50:59;;;;;;;0.60;0.60;;;;;;;;;;5065940;28;20455;-75
2023/03/15 12:53:27;;;;;;;0.80;0.80;;;;;;;;;;5062926;28;20503;-75
2023/03/15 12:55:54;;;;;;;0.63;0.47;;;;;;;;;;5064813;28;20841;-75
2023/03/15 12:58:23;;;;;;;0.73;0.73;;;;;;;;;;5064780;28;20465;-75
2023/03/15 13:00:52;;;;;;;0.50;0.50;;;;;;;;;;5064934;28;20425;-75
2023/03/15 13:03:25;;;;;;;0.50;0.50;;;;;;;;;;5065888;28;20418;-75
2023/03/15 13:05:54;;;;;;;0.50;0.50;;;;;;;;;;5065744;28;20909;-75
2023/03/15 13:08:21;;;;;;;0.90;0.90;;;;;;;;;;5065517;28;20422;-75
2023/03/15 13:10:53;;;;;;;0.50;0.50;;;;;;;;;;5065597;28;20781;-75
2023/03/15 13:13:28;;;;;;;0.90;0.90;;;;;;;;;;5055732;28;21079;-76
2023/03/15 13:16:00;;;;;;;0.63;0.60;;;;;;;;;;5052710;28;20441;-76
2023/03/15 13:18:28;;;;;;;1.70;0.40;;;;;;;;;;5064655;28;20422;-76
2023/03/15 13:21:10;;;;;;;1.00;1.00;;;;;;;;;;5059195;28;20533;-75
2023/03/15 13:23:37;;;;;;;0.40;0.40;;;;;;;;;;5057473;28;20418;-74
2023/03/15 13:26:20;;;;;;;0.40;0.40;;;;;;;;;;5051438;28;20924;-75
2023/03/15 13:28:49;;;;;;;0.60;0.60;;;;;;;;;;5051275;28;20496;-74
2023/03/15 13:31:15;;;;;;;0.80;0.80;;;;;;;;;;5043881;28;21405;-75
2023/03/15 13:33:41;;;;;;;1.70;0.70;;;;;;;;;;5049588;28;20464;-76
2023/03/15 13:36:10;;;;;;;0.77;0.77;;;;;;;;;;5050722;28;20508;-76
2023/03/15 13:38:40;;;;;;;0.80;0.80;;;;;;;;;;5050169;28;20430;-75
2023/03/15 13:41:17;;;;;;;0.93;0.93;;;;;;;;;;5049435;28;20451;-76
2023/03/15 13:43:44;;;;;;;1.47;1.47;;;;;;;;;;5048190;28;20429;-76
2023/03/15 13:46:10;;;;;;;1.07;1.07;;;;;;;;;;5047705;28;20530;-76
2023/03/15 13:48:37;;;;;;;3.07;1.33;;;;;;;;;;5050141;28;20528;-75
2023/03/15 13:51:05;;;;;;;2.73;1.10;;;;;;;;;;5047311;28;20956;-75
2023/03/15 13:53:33;;;;;;;0.30;0.30;;;;;;;;;;5049606;28;20890;-75
2023/03/15 13:56:01;;;;;;;3.97;0.63;;;;;;;;;;5049611;28;20493;-75
2023/03/15 13:58:28;;;;;;;0.77;0.77;;;;;;;;;;5048664;28;20474;-75
2023/03/15 14:01:01;;;;;;;0.73;0.73;;;;;;;;;;5048359;28;20508;-75
2023/03/15 14:03:27;;;;;;;2.20;1.00;;;;;;;;;;5051187;28;20925;-76
2023/03/15 14:05:55;;;;;;;0.60;0.50;;;;;;;;;;5047069;28;20536;-75
2023/03/15 14:08:26;;;;;;;0.70;0.70;;;;;;;;;;5050551;28;20916;-75
2023/03/15 14:10:59;;;;;;;0.97;0.33;;;;;;;;;;5045330;28;20481;-75
2023/03/15 14:13:35;;;;;;;0.50;0.50;;;;;;;;;;5046283;28;20465;-75
2023/03/15 14:16:04;;;;;;;0.40;0.40;;;;;;;;;;5043027;28;20442;-76
2023/03/15 14:18:31;;;;;;;0.50;0.50;;;;;;;;;;5043265;28;21007;-76
2023/03/15 14:21:03;;;;;;;0.43;0.43;;;;;;;;;;5046636;28;20437;-75
2023/03/15 14:23:30;;;;;;;2.53;0.70;;;;;;;;;;5044946;28;20872;-75
2023/03/15 14:26:09;;;;;;;0.40;0.40;;;;;;;;;;5048569;28;20434;-75
2023/03/15 14:28:35;;;;;;;0.30;0.30;;;;;;;;;;5044378;28;20518;-75
2023/03/15 14:31:01;;;;;;;0.50;0.40;;;;;;;;;;5045417;28;20540;-75
2023/03/15 14:33:33;;;;;;;0.80;0.50;;;;;;;;;;5049254;28;20504;-75
2023/03/15 14:36:01;;;;;;;0.60;0.60;;;;;;;;;;5042454;28;20511;-76
2023/03/15 14:38:31;;;;;;;1.30;1.30;;;;;;;;;;5047629;28;20442;-75
2023/03/15 14:41:09;;;;;;;1.97;0.80;;;;;;;;;;5051203;28;20414;-75
2023/03/15 14:43:35;;;;;;;0.83;0.47;;;;;;;;;;5050453;28;20433;-75
2023/03/15 14:46:01;;;;;;;1.10;1.10;;;;;;;;;;5046731;28;20800;-75
2023/03/15 14:48:28;;;;;;;0.30;0.30;;;;;;;;;;5049589;28;20434;-75
2023/03/15 14:50:54;;;;;;;0.40;0.40;;;;;;;;;;5049383;28;20466;-75
2023/03/15 14:53:22;;;;;;;0.43;0.43;;;;;;;;;;5045074;28;20454;-75
2023/03/15 14:55:48;;;;;;;1.33;0.60;;;;;;;;;;5048296;28;20462;-74